Time;durP1;ratioP1;P1;durP2;ratioP2;P2;SDS_P1;SDS_P2;PMS_P1;PMS_P2;Temp;Humidity;BMP_temperature;BMP_pressure;BME280_temperature;BME280_humidity;BME280_pressure;Samples;Min_cycle;Max_cycle;Signal;HPM_P1;HPM_P2
2023/01/24 00:00:18;;;;;;;11.93;5.97;;;0.90;99.90;0.20;102702;;;;542900;262;24164;-73
2023/01/24 00:02:46;;;;;;;10.07;5.83;;;0.90;99.90;0.20;102698;;;;539811;262;24145;-74
2023/01/24 00:05:15;;;;;;;10.03;4.80;;;0.90;99.90;0.10;102700;;;;543242;262;24214;-75
2023/01/24 00:07:44;;;;;;;6.50;4.47;;;0.90;99.90;0.20;102716;;;;543493;262;24157;-73
2023/01/24 00:10:12;;;;;;;6.90;4.80;;;0.90;99.90;0.10;102707;;;;543638;262;24168;-79
2023/01/24 00:12:40;;;;;;;6.37;5.17;;;0.90;99.90;0.10;102703;;;;548605;260;24177;-73
2023/01/24 00:15:08;;;;;;;10.40;4.73;;;0.90;99.90;0.10;102697;;;;543936;262;24134;-73
2023/01/24 00:17:36;;;;;;;6.70;4.23;;;0.90;99.90;0.10;102703;;;;540984;262;24160;-77
2023/01/24 00:20:05;;;;;;;6.90;4.47;;;0.90;99.90;0.10;102691;;;;543807;262;24195;-78
2023/01/24 00:22:32;;;;;;;7.37;4.53;;;0.90;99.90;0.10;102706;;;;540558;262;24135;-74
2023/01/24 00:25:00;;;;;;;8.73;4.53;;;0.90;99.90;0.10;102701;;;;536444;262;24164;-73
2023/01/24 00:27:31;;;;;;;4.23;3.43;;;0.80;99.90;0.10;102697;;;;543107;262;24171;-75
2023/01/24 00:29:56;;;;;;;4.03;3.20;;;0.80;99.90;0.10;102704;;;;543333;262;24168;-73
2023/01/24 00:32:24;;;;;;;3.70;3.40;;;0.80;99.90;0.10;102698;;;;542033;262;24213;-74
2023/01/24 00:34:52;;;;;;;5.53;3.83;;;0.80;99.90;0.10;102702;;;;542521;262;24162;-75
2023/01/24 00:37:20;;;;;;;5.40;3.50;;;0.80;99.90;0.10;102698;;;;542165;262;24200;-74
2023/01/24 00:39:48;;;;;;;4.37;3.67;;;0.80;99.90;0.10;102698;;;;542337;262;24197;-74
2023/01/24 00:42:16;;;;;;;4.73;3.87;;;0.80;99.90;0.00;102706;;;;542566;262;24184;-74
2023/01/24 00:44:43;;;;;;;5.13;4.63;;;0.80;99.90;0.10;102709;;;;542485;262;24239;-74
2023/01/24 00:47:13;;;;;;;4.60;4.03;;;0.80;99.90;0.00;102708;;;;542636;262;24208;-74
2023/01/24 00:49:42;;;;;;;5.63;4.87;;;0.80;99.90;0.00;102698;;;;542782;262;24160;-74
2023/01/24 00:52:10;;;;;;;5.50;5.00;;;0.70;99.90;0.00;102700;;;;542664;262;24186;-74
2023/01/24 00:54:39;;;;;;;5.13;4.30;;;0.80;99.90;0.00;102695;;;;543806;262;24263;-75
2023/01/24 00:57:07;;;;;;;5.27;4.63;;;0.70;99.90;0.00;102701;;;;543513;258;24165;-74
2023/01/24 00:59:37;;;;;;;5.43;4.93;;;0.70;99.90;0.00;102703;;;;543714;262;24188;-75
2023/01/24 01:02:04;;;;;;;5.83;5.20;;;0.70;99.90;0.00;102695;;;;543871;262;24181;-74
2023/01/24 01:04:32;;;;;;;5.40;4.73;;;0.70;99.90;-0.10;102681;;;;543449;262;24212;-75
2023/01/24 01:07:00;;;;;;;5.63;4.63;;;0.70;99.90;0.00;102696;;;;541593;262;24173;-76
2023/01/24 01:09:28;;;;;;;6.90;4.40;;;0.70;99.90;-0.10;102703;;;;543324;262;24153;-74
2023/01/24 01:11:55;;;;;;;4.77;4.30;;;0.70;99.90;-0.10;102691;;;;542133;262;24236;-76
2023/01/24 01:14:23;;;;;;;4.90;4.50;;;0.60;99.90;-0.10;102701;;;;542080;262;24116;-74
2023/01/24 01:16:51;;;;;;;4.90;4.13;;;0.60;99.90;-0.10;102694;;;;542086;262;24143;-76
2023/01/24 01:19:19;;;;;;;4.27;3.90;;;0.60;99.90;-0.10;102699;;;;540912;262;24166;-76
2023/01/24 01:21:49;;;;;;;5.37;3.90;;;0.60;99.90;-0.10;102692;;;;540623;262;24153;-76
2023/01/24 01:24:15;;;;;;;5.77;5.00;;;0.60;99.90;-0.10;102696;;;;541073;262;24216;-80
2023/01/24 01:26:43;;;;;;;4.53;4.13;;;0.60;99.90;-0.20;102701;;;;540038;262;24242;-80
2023/01/24 01:29:11;;;;;;;4.67;4.20;;;0.60;99.90;-0.20;102703;;;;540812;262;24175;-81
2023/01/24 01:31:39;;;;;;;5.17;4.53;;;0.60;99.90;-0.20;102710;;;;540817;262;24192;-75
2023/01/24 01:34:07;;;;;;;5.07;4.37;;;0.50;99.90;-0.20;102698;;;;540294;262;24158;-79
2023/01/24 01:36:35;;;;;;;4.53;4.00;;;0.50;99.90;-0.20;102695;;;;540511;262;24202;-74
2023/01/24 01:39:03;;;;;;;3.70;3.40;;;0.50;99.90;-0.20;102689;;;;540799;262;24192;-74
2023/01/24 01:41:31;;;;;;;4.80;4.40;;;0.50;99.90;-0.20;102695;;;;541226;262;24179;-75
2023/01/24 01:47:03;;;;;;;4.60;4.20;;;0.50;99.90;-0.20;102692;;;;540783;262;24172;-78
2023/01/24 01:49:31;;;;;;;4.03;3.63;;;0.50;99.90;-0.20;102697;;;;541053;262;24164;-77
2023/01/24 01:52:02;;;;;;;4.20;3.80;;;0.50;99.90;-0.20;102692;;;;541352;262;24195;-75
2023/01/24 01:54:35;;;;;;;4.30;4.00;;;0.50;99.90;-0.20;102703;;;;540295;262;24200;-74
2023/01/24 01:57:03;;;;;;;4.23;3.83;;;0.50;99.90;-0.20;102697;;;;540327;258;24170;-73
2023/01/24 01:59:36;;;;;;;4.33;4.03;;;0.50;99.90;-0.20;102698;;;;538382;262;24169;-73
2023/01/24 02:02:04;;;;;;;6.40;3.70;;;0.50;99.90;-0.20;102691;;;;539301;262;24180;-74
2023/01/24 02:04:32;;;;;;;3.80;3.50;;;0.50;99.90;-0.20;102689;;;;540734;260;24271;-74
2023/01/24 02:07:10;;;;;;;4.40;4.10;;;0.60;99.90;-0.20;102691;;;;542883;262;24168;-75
2023/01/24 02:09:38;;;;;;;4.60;4.20;;;0.50;99.90;-0.20;102692;;;;540189;262;24276;-75
2023/01/24 02:12:06;;;;;;;5.30;3.93;;;0.60;99.90;-0.20;102689;;;;540222;262;24175;-75
2023/01/24 02:17:20;;;;;;;4.90;4.27;;;0.60;99.90;-0.20;102696;;;;547885;259;24234;-75
2023/01/24 02:20:12;;;;;;;4.27;3.83;;;0.60;99.90;-0.20;102682;;;;541207;262;24213;-74
2023/01/24 02:22:57;;;;;;;5.97;4.40;;;0.60;99.90;-0.20;102686;;;;539479;262;24209;-74
2023/01/24 02:25:43;;;;;;;4.47;4.07;;;0.60;99.90;-0.20;102693;;;;542002;262;25324;-76
2023/01/24 02:28:11;;;;;;;3.43;3.13;;;0.50;99.90;-0.20;102692;;;;542404;262;24174;-74
2023/01/24 02:30:41;;;;;;;4.07;3.77;;;0.50;99.90;-0.20;102688;;;;548315;261;24195;-74
2023/01/24 02:33:19;;;;;;;5.23;4.10;;;0.50;99.90;-0.30;102692;;;;550455;257;25367;-73
2023/01/24 02:35:47;;;;;;;4.77;4.33;;;0.50;99.90;-0.30;102692;;;;539739;262;24208;-74
2023/01/24 02:38:23;;;;;;;5.20;4.70;;;0.50;99.90;-0.30;102688;;;;536559;262;35723;-75
2023/01/24 02:40:51;;;;;;;3.70;3.23;;;0.50;99.90;-0.30;102690;;;;546719;260;24190;-74
2023/01/24 02:43:19;;;;;;;3.97;2.97;;;0.50;99.90;-0.30;102686;;;;540683;262;24178;-74
2023/01/24 02:45:51;;;;;;;6.07;3.97;;;0.40;99.90;-0.30;102681;;;;538775;262;24224;-74
2023/01/24 02:48:16;;;;;;;5.50;4.87;;;0.40;99.90;-0.30;102690;;;;540261;262;24191;-74
2023/01/24 02:53:30;;;;;;;7.53;6.73;;;0.40;99.90;-0.30;102702;;;;546536;262;24228;-73
2023/01/24 02:58:49;;;;;;;8.53;6.00;;;0.40;99.90;-0.40;102688;;;;546470;259;24196;-73
2023/01/24 03:01:17;;;;;;;5.93;4.77;;;0.40;99.90;-0.40;102697;;;;540793;262;24154;-76
2023/01/24 03:03:45;;;;;;;9.23;5.37;;;0.40;99.90;-0.40;102688;;;;542589;262;24162;-80
2023/01/24 03:06:16;;;;;;;5.77;5.17;;;0.30;99.90;-0.40;102692;;;;540335;262;24240;-75
2023/01/24 03:08:43;;;;;;;5.97;5.37;;;0.30;99.90;-0.40;102671;;;;541680;262;24287;-74
2023/01/24 03:11:08;;;;;;;5.50;5.00;;;0.30;99.90;-0.50;102674;;;;540690;262;24219;-76
2023/01/24 03:35:53;;;;;;;8.63;6.80;;;0.20;99.90;-0.60;102653;;;;547232;262;24167;-74
2023/01/24 03:40:59;;;;;;;9.10;7.33;;;0.20;99.90;-0.60;102672;;;;547273;262;24243;-74
2023/01/24 03:43:27;;;;;;;8.20;7.07;;;0.20;99.90;-0.60;102664;;;;539293;262;24225;-74
2023/01/24 03:45:55;;;;;;;11.47;7.27;;;0.20;99.90;-0.60;102666;;;;540891;262;24175;-74
2023/01/24 03:48:26;;;;;;;9.30;7.00;;;0.10;99.90;-0.60;102660;;;;540940;262;24180;-75
2023/01/24 03:53:37;;;;;;;6.30;5.70;;;0.10;99.90;-0.60;102667;;;;547167;259;24155;-75
2023/01/24 03:56:05;;;;;;;7.20;6.50;;;0.10;99.90;-0.60;102662;;;;541233;262;24161;-73
2023/01/24 03:58:33;;;;;;;8.67;6.97;;;0.10;99.90;-0.60;102661;;;;539590;262;24181;-75
2023/01/24 04:01:00;;;;;;;8.43;6.80;;;0.10;99.90;-0.70;102656;;;;540707;262;24166;-72
2023/01/24 04:03:28;;;;;;;8.80;6.60;;;0.10;99.90;-0.70;102662;;;;540790;262;24229;-74
2023/01/24 04:05:56;;;;;;;6.80;6.17;;;0.10;99.90;-0.70;102662;;;;540663;262;24168;-74
2023/01/24 04:08:24;;;;;;;8.77;6.50;;;0.10;99.90;-0.70;102670;;;;541147;262;24150;-73
2023/01/24 04:10:52;;;;;;;6.83;6.20;;;0.10;99.90;-0.70;102653;;;;547508;262;24191;-73
2023/01/24 04:13:20;;;;;;;7.17;6.47;;;0.10;99.90;-0.70;102665;;;;539195;262;24180;-74
2023/01/24 04:15:51;;;;;;;7.97;6.10;;;0.00;99.90;-0.70;102663;;;;540544;262;24212;-72
2023/01/24 04:18:16;;;;;;;6.83;5.97;;;0.10;99.90;-0.70;102671;;;;540224;262;24177;-73
2023/01/24 04:20:47;;;;;;;7.03;6.33;;;0.00;99.90;-0.70;102678;;;;540497;262;24167;-73
2023/01/24 04:23:17;;;;;;;6.97;5.97;;;0.00;99.90;-0.80;102669;;;;540145;262;24225;-75
2023/01/24 04:25:41;;;;;;;7.78;6.97;;;0.00;99.90;-0.80;102676;;;;535351;262;35740;-80
2023/01/24 04:28:09;;;;;;;4.43;4.03;;;0.00;99.90;-0.80;102668;;;;541012;261;24164;-82
2023/01/24 04:30:40;;;;;;;6.30;4.43;;;0.00;99.90;-0.80;102677;;;;541393;262;24152;-75
2023/01/24 04:33:08;;;;;;;6.10;5.60;;;-0.10;99.90;-0.80;102684;;;;547899;260;24239;-73
2023/01/24 04:35:37;;;;;;;6.47;5.87;;;-0.10;99.90;-0.80;102682;;;;541327;262;24243;-74
2023/01/24 04:38:05;;;;;;;6.77;6.10;;;-0.10;99.90;-0.80;102682;;;;541059;262;24190;-74
2023/01/24 04:40:33;;;;;;;7.33;5.90;;;-0.10;99.90;-0.80;102675;;;;541010;262;24183;-73
2023/01/24 04:43:01;;;;;;;6.57;6.00;;;-0.10;99.90;-0.90;102670;;;;541055;262;24163;-73
2023/01/24 04:45:29;;;;;;;10.13;7.00;;;-0.10;99.90;-0.90;102670;;;;539726;262;24183;-73
2023/01/24 04:47:57;;;;;;;7.77;6.10;;;-0.10;99.90;-0.90;102667;;;;540484;262;24164;-73
2023/01/24 04:50:24;;;;;;;7.93;7.23;;;-0.10;99.90;-0.90;102664;;;;540735;262;24154;-73
2023/01/24 04:52:52;;;;;;;9.23;7.17;;;-0.10;99.90;-0.90;102660;;;;541376;262;24216;-74
2023/01/24 04:55:21;;;;;;;8.37;7.47;;;-0.10;99.90;-0.90;102661;;;;540590;262;24212;-73
2023/01/24 04:57:50;;;;;;;8.57;6.90;;;-0.10;99.90;-0.90;102665;;;;540523;262;24170;-74
2023/01/24 05:00:18;;;;;;;7.97;7.17;;;-0.10;99.90;-0.90;102664;;;;540441;262;24169;-74
2023/01/24 05:02:46;;;;;;;8.50;7.33;;;-0.10;99.90;-0.90;102668;;;;536549;262;24217;-74
2023/01/24 05:05:14;;;;;;;7.70;6.90;;;-0.10;99.90;-0.90;102661;;;;540237;262;24154;-73
2023/01/24 05:07:41;;;;;;;6.87;5.82;;;-0.10;99.90;-1.00;102669;;;;535448;262;35781;-75
2023/01/24 05:10:09;;;;;;;7.27;5.33;;;-0.20;99.90;-1.00;102666;;;;540127;262;24184;-74
2023/01/24 05:12:37;;;;;;;6.63;4.90;;;-0.20;99.90;-1.00;102683;;;;538658;262;24176;-73
2023/01/24 05:15:08;;;;;;;7.53;6.50;;;-0.20;99.90;-1.00;102691;;;;540092;262;24166;-73
2023/01/24 05:17:33;;;;;;;8.23;7.40;;;-0.20;99.90;-1.00;102697;;;;539833;262;24251;-73
2023/01/24 05:20:01;;;;;;;11.07;7.93;;;-0.20;99.90;-1.00;102706;;;;540154;262;24219;-73
2023/01/24 05:22:29;;;;;;;12.00;8.53;;;-0.30;99.90;-1.10;102713;;;;540090;262;24177;-73
2023/01/24 05:24:57;;;;;;;10.37;8.50;;;-0.30;99.90;-1.10;102711;;;;540161;262;24170;-73
2023/01/24 05:27:25;;;;;;;11.57;9.33;;;-0.30;99.90;-1.10;102715;;;;540121;262;24177;-74
2023/01/24 05:29:53;;;;;;;11.63;9.63;;;-0.40;99.90;-1.10;102716;;;;538773;262;24170;-75
2023/01/24 05:32:21;;;;;;;11.30;10.20;;;-0.40;99.90;-1.10;102710;;;;540379;262;24198;-79
2023/01/24 05:34:50;;;;;;;11.10;9.87;;;-0.40;99.90;-1.10;102702;;;;540718;262;24176;-79
2023/01/24 05:37:18;;;;;;;11.23;10.20;;;-0.40;99.90;-1.10;102710;;;;540726;262;24158;-74
2023/01/24 05:39:47;;;;;;;12.10;10.53;;;-0.40;99.90;-1.10;102711;;;;541286;261;24166;-75
2023/01/24 05:42:15;;;;;;;11.57;10.37;;;-0.40;99.90;-1.10;102715;;;;541815;262;25199;-74
2023/01/24 05:44:43;;;;;;;12.03;10.33;;;-0.30;99.90;-1.10;102703;;;;541645;262;24165;-75
2023/01/24 05:47:12;;;;;;;11.83;9.60;;;-0.30;99.90;-1.10;102701;;;;541503;262;25185;-74
2023/01/24 05:49:40;;;;;;;12.73;10.07;;;-0.30;99.90;-1.10;102707;;;;541015;262;24328;-73
2023/01/24 05:52:07;;;;;;;11.07;9.77;;;-0.30;99.90;-1.10;102703;;;;540791;262;24177;-74
2023/01/24 05:54:35;;;;;;;11.87;10.70;;;-0.40;99.90;-1.10;102697;;;;540883;262;24169;-74
2023/01/24 05:57:06;;;;;;;11.50;10.30;;;-0.40;99.90;-1.10;102705;;;;540828;258;24184;-74
2023/01/24 05:59:36;;;;;;;11.60;10.40;;;-0.40;99.90;-1.10;102701;;;;540968;262;24239;-75
2023/01/24 06:02:02;;;;;;;11.13;10.13;;;-0.40;99.90;-1.20;102693;;;;539802;262;24227;-74
2023/01/24 06:04:29;;;;;;;11.87;10.67;;;-0.40;99.90;-1.20;102687;;;;541461;262;24157;-74
2023/01/24 06:06:58;;;;;;;13.80;11.13;;;-0.40;99.90;-1.20;102685;;;;541046;262;24164;-74
2023/01/24 06:09:27;;;;;;;14.93;11.33;;;-0.50;99.90;-1.20;102682;;;;541299;262;24212;-76
2023/01/24 06:11:56;;;;;;;12.90;11.53;;;-0.50;99.90;-1.20;102670;;;;548045;262;24182;-73
2023/01/24 06:14:24;;;;;;;12.30;11.07;;;-0.50;99.90;-1.30;102675;;;;540897;262;24185;-74
2023/01/24 06:16:53;;;;;;;11.73;9.80;;;-0.50;99.90;-1.30;102681;;;;540826;262;24184;-76
2023/01/24 06:19:21;;;;;;;12.97;11.33;;;-0.50;99.90;-1.30;102680;;;;541031;262;24190;-75
2023/01/24 06:21:49;;;;;;;14.13;11.83;;;-0.50;99.90;-1.30;102663;;;;539449;261;24216;-74
2023/01/24 06:24:26;;;;;;;12.67;11.33;;;-0.50;99.90;-1.30;102669;;;;539128;262;24231;-74
2023/01/24 06:26:54;;;;;;;11.83;10.53;;;-0.50;99.90;-1.20;102676;;;;540676;262;24202;-73
2023/01/24 06:29:22;;;;;;;11.50;10.40;;;-0.50;99.90;-1.30;102674;;;;539151;262;24254;-74
2023/01/24 06:32:11;;;;;;;11.87;10.57;;;-0.50;99.90;-1.30;102684;;;;539217;262;24172;-74
2023/01/24 06:35:00;;;;;;;12.47;11.17;;;-0.50;99.90;-1.30;102677;;;;540312;262;24184;-73
2023/01/24 06:37:46;;;;;;;13.33;11.07;;;-0.50;99.90;-1.30;102675;;;;539286;262;25247;-73
2023/01/24 06:40:18;;;;;;;14.57;11.63;;;-0.50;99.90;-1.30;102691;;;;540781;262;24240;-73
2023/01/24 06:42:46;;;;;;;13.37;11.97;;;-0.50;99.90;-1.20;102691;;;;539066;262;24225;-73
2023/01/24 06:45:12;;;;;;;12.93;11.53;;;-0.50;99.90;-1.20;102697;;;;539039;262;24174;-74
2023/01/24 06:47:40;;;;;;;15.07;12.53;;;-0.50;99.90;-1.20;102706;;;;546685;262;24184;-74
2023/01/24 06:50:08;;;;;;;12.90;11.60;;;-0.50;99.90;-1.20;102705;;;;540083;262;24162;-74
2023/01/24 06:52:35;;;;;;;14.87;13.10;;;-0.40;99.90;-1.20;102713;;;;547908;261;24208;-73
2023/01/24 06:55:03;;;;;;;13.17;11.77;;;-0.40;99.90;-1.20;102717;;;;542605;262;24174;-73
2023/01/24 06:57:31;;;;;;;12.23;10.80;;;-0.40;99.90;-1.20;102720;;;;539990;262;24206;-75
2023/01/24 06:59:59;;;;;;;12.33;11.03;;;-0.40;99.90;-1.20;102724;;;;537437;262;24170;-73
2023/01/24 07:02:27;;;;;;;13.17;11.63;;;-0.40;99.90;-1.20;102720;;;;541267;262;24172;-74
2023/01/24 07:04:55;;;;;;;14.03;12.07;;;-0.40;99.90;-1.20;102725;;;;541120;262;24163;-73
2023/01/24 07:07:23;;;;;;;12.83;11.30;;;-0.50;99.90;-1.30;102733;;;;541271;262;24210;-74
2023/01/24 07:09:51;;;;;;;13.13;10.90;;;-0.50;99.90;-1.30;102738;;;;541277;262;24175;-73
2023/01/24 07:12:19;;;;;;;12.40;11.10;;;-0.50;99.90;-1.30;102743;;;;541201;262;24160;-75
2023/01/24 07:14:48;;;;;;;13.33;11.93;;;-0.50;99.90;-1.30;102755;;;;541191;262;24195;-74
2023/01/24 07:17:16;;;;;;;12.77;11.20;;;-0.50;99.90;-1.20;102758;;;;541031;262;24271;-75
2023/01/24 07:19:44;;;;;;;13.10;11.37;;;-0.50;99.90;-1.20;102768;;;;541515;262;24161;-75
2023/01/24 07:22:16;;;;;;;14.80;11.97;;;-0.50;99.90;-1.20;102771;;;;539403;260;24185;-75
2023/01/24 07:24:44;;;;;;;12.93;11.17;;;-0.50;99.90;-1.20;102772;;;;539278;262;24187;-74
2023/01/24 07:27:14;;;;;;;13.43;11.17;;;-0.50;99.90;-1.20;102774;;;;539177;262;24217;-75
2023/01/24 07:29:39;;;;;;;12.77;11.47;;;-0.50;99.90;-1.20;102765;;;;540421;262;24175;-76
2023/01/24 07:32:07;;;;;;;13.43;11.30;;;-0.40;99.90;-1.20;102769;;;;540573;262;24177;-74
2023/01/24 07:34:35;;;;;;;13.80;12.33;;;-0.40;99.90;-1.20;102765;;;;539401;262;24203;-73
2023/01/24 07:37:03;;;;;;;19.60;14.40;;;-0.40;99.90;-1.20;102757;;;;540693;262;24230;-74
2023/01/24 07:39:31;;;;;;;16.13;12.70;;;-0.40;99.90;-1.20;102759;;;;539597;262;24177;-74
2023/01/24 07:41:59;;;;;;;14.23;11.50;;;-0.40;99.90;-1.10;102753;;;;540820;262;24143;-73
2023/01/24 07:44:27;;;;;;;12.33;10.63;;;-0.30;99.90;-1.10;102778;;;;539434;262;24170;-76
2023/01/24 07:46:55;;;;;;;12.73;11.37;;;-0.30;99.90;-1.10;102778;;;;540769;262;24180;-76
2023/01/24 07:49:23;;;;;;;15.13;13.20;;;-0.40;99.90;-1.20;102780;;;;540694;262;24179;-74
2023/01/24 07:51:51;;;;;;;14.90;11.50;;;-0.40;99.90;-1.20;102783;;;;540829;262;24176;-75
2023/01/24 07:54:19;;;;;;;13.87;11.53;;;-0.40;99.90;-1.10;102783;;;;546877;261;24212;-75
2023/01/24 07:56:46;;;;;;;15.87;12.63;;;-0.40;99.90;-1.10;102779;;;;540344;262;24169;-74
2023/01/24 07:59:14;;;;;;;15.83;12.20;;;-0.30;99.90;-1.10;102794;;;;539407;262;24239;-75
2023/01/24 08:01:42;;;;;;;14.70;12.53;;;-0.30;99.90;-1.00;102815;;;;541075;262;24215;-79
2023/01/24 08:04:11;;;;;;;17.97;13.23;;;-0.30;99.90;-1.00;102809;;;;542486;262;24165;-79
2023/01/24 08:07:16;;;;;;;13.93;12.33;;;-0.30;99.90;-1.00;102814;;;;542167;262;24175;-76
2023/01/24 08:09:10;;;;;;;14.27;12.03;;;-0.30;99.90;-1.00;102832;;;;540595;262;24231;-77
2023/01/24 08:11:38;;;;;;;14.53;13.03;;;-0.30;99.90;-1.00;102827;;;;541924;262;24187;-76
2023/01/24 08:14:06;;;;;;;16.37;13.63;;;-0.20;99.90;-1.00;102816;;;;541742;262;24164;-73
2023/01/24 08:16:34;;;;;;;17.17;13.90;;;-0.20;99.90;-1.00;102823;;;;541797;262;24282;-74
2023/01/24 08:19:02;;;;;;;14.17;12.67;;;-0.20;99.90;-0.90;102828;;;;541688;262;24195;-79
2023/01/24 08:21:30;;;;;;;12.10;10.93;;;-0.20;99.90;-0.90;102822;;;;541374;262;24171;-75
2023/01/24 08:23:57;;;;;;;14.03;11.77;;;-0.20;99.90;-0.90;102827;;;;541209;262;24167;-75
2023/01/24 08:26:25;;;;;;;14.60;10.73;;;-0.10;99.90;-0.80;102821;;;;541118;262;24237;-75
2023/01/24 08:28:53;;;;;;;10.80;9.70;;;-0.10;99.90;-0.80;102825;;;;541122;262;24164;-78
2023/01/24 08:31:21;;;;;;;14.20;10.53;;;0.00;99.90;-0.70;102827;;;;541393;262;24183;-80
2023/01/24 08:33:49;;;;;;;15.10;10.83;;;0.00;99.90;-0.70;102817;;;;541192;262;24156;-80
2023/01/24 08:36:19;;;;;;;14.20;11.13;;;0.10;99.90;-0.60;102825;;;;540907;262;24195;-79
2023/01/24 08:38:48;;;;;;;13.40;10.90;;;0.20;99.90;-0.50;102828;;;;540803;262;24215;-76
2023/01/24 08:41:13;;;;;;;14.93;10.23;;;0.20;99.90;-0.50;102819;;;;538713;262;24165;-74
2023/01/24 08:43:42;;;;;;;14.47;11.60;;;0.30;99.90;-0.40;102820;;;;540230;262;24147;-75
2023/01/24 08:46:10;;;;;;;12.43;9.63;;;0.30;99.90;-0.40;102816;;;;538904;262;24196;-73
2023/01/24 08:48:37;;;;;;;14.03;10.03;;;0.40;99.90;-0.30;102810;;;;540136;262;24169;-73
2023/01/24 08:51:06;;;;;;;16.50;10.33;;;0.40;99.90;-0.30;102809;;;;539966;262;24196;-74
2023/01/24 08:53:33;;;;;;;13.10;8.83;;;0.40;99.90;-0.30;102810;;;;538861;262;24161;-74
2023/01/24 08:56:01;;;;;;;12.77;9.23;;;0.50;99.90;-0.30;102801;;;;540020;262;24172;-73
2023/01/24 08:58:33;;;;;;;11.97;8.17;;;0.50;99.90;-0.30;102801;;;;540475;262;24185;-75
2023/01/24 09:00:57;;;;;;;10.00;5.93;;;0.50;99.90;-0.20;102795;;;;539439;262;24192;-75
2023/01/24 09:03:26;;;;;;;8.03;5.43;;;0.50;99.90;-0.20;102790;;;;540935;262;24166;-74
2023/01/24 09:05:59;;;;;;;13.50;6.47;;;0.60;99.90;-0.10;102796;;;;540816;262;24185;-75
2023/01/24 09:08:23;;;;;;;12.63;5.27;;;0.60;99.90;0.00;102789;;;;540426;262;24171;-75
2023/01/24 09:10:51;;;;;;;12.67;6.20;;;0.80;99.90;0.10;102780;;;;539619;262;24159;-75
2023/01/24 09:13:19;;;;;;;9.30;6.27;;;0.90;99.90;0.20;102780;;;;542579;262;24176;-76
2023/01/24 09:15:47;;;;;;;9.20;5.90;;;0.90;99.90;0.20;102783;;;;542885;262;24216;-75
2023/01/24 09:18:16;;;;;;;11.70;6.37;;;1.00;99.90;0.30;102780;;;;543483;262;24160;-77
2023/01/24 09:20:46;;;;;;;11.70;6.10;;;1.00;99.90;0.40;102766;;;;543459;262;24165;-80
2023/01/24 09:23:14;;;;;;;9.17;5.40;;;1.10;99.90;0.40;102757;;;;545933;257;24162;-76
2023/01/24 09:25:39;;;;;;;6.63;5.30;;;1.20;99.90;0.50;102762;;;;539076;262;24203;-76
2023/01/24 09:28:07;;;;;;;8.03;5.30;;;1.20;99.90;0.50;102779;;;;542638;262;24267;-75
2023/01/24 09:30:37;;;;;;;5.43;4.83;;;1.30;99.90;0.50;102785;;;;557584;257;24240;-77
2023/01/24 09:33:05;;;;;;;8.77;4.63;;;1.30;99.90;0.60;102783;;;;535955;262;24205;-74
2023/01/24 09:35:33;;;;;;;7.10;5.37;;;1.30;99.90;0.70;102786;;;;539697;262;24188;-75
2023/01/24 09:38:01;;;;;;;7.63;5.57;;;1.40;99.90;0.70;102777;;;;542522;262;24218;-79
2023/01/24 09:40:47;;;;;;;7.40;5.10;;;1.50;99.90;0.80;102776;;;;539898;259;24158;-77
2023/01/24 09:43:46;;;;;;;7.43;5.27;;;1.50;99.90;0.90;102775;;;;539907;262;24222;-76
2023/01/24 09:46:29;;;;;;;8.60;5.43;;;1.60;99.90;0.90;102777;;;;537010;262;24181;-82
2023/01/24 09:49:11;;;;;;;7.50;6.07;;;1.60;99.90;0.90;102781;;;;542540;262;24211;-78
2023/01/24 09:51:48;;;;;;;12.53;7.17;;;1.60;99.90;0.90;102775;;;;542543;262;24247;-80
2023/01/24 09:54:24;;;;;;;10.17;5.60;;;1.60;99.90;0.90;102773;;;;542495;262;24169;-74
2023/01/24 09:56:55;;;;;;;6.83;5.47;;;1.60;99.90;0.90;102762;;;;540253;258;24141;-78
2023/01/24 09:59:41;;;;;;;6.33;5.03;;;1.60;99.90;0.80;102758;;;;547829;262;24172;-74
2023/01/24 10:02:21;;;;;;;8.13;4.27;;;1.50;99.90;0.80;102766;;;;540329;262;24137;-78
2023/01/24 10:04:49;;;;;;;7.57;4.80;;;1.50;99.90;0.80;102753;;;;539820;262;24178;-75
2023/01/24 10:07:38;;;;;;;7.77;4.90;;;1.50;99.90;0.80;102751;;;;541079;262;25219;-74
2023/01/24 10:10:15;;;;;;;8.20;5.07;;;1.50;99.90;0.70;102752;;;;539589;261;24164;-75
2023/01/24 10:12:57;;;;;;;5.87;5.17;;;1.40;99.90;0.60;102746;;;;538056;262;24188;-73
2023/01/24 10:15:47;;;;;;;7.30;4.97;;;1.30;99.90;0.60;102744;;;;537803;262;24188;-73
2023/01/24 10:18:54;;;;;;;11.35;8.18;;;1.30;99.90;0.60;102742;;;;534144;262;35762;-75
2023/01/24 10:21:31;;;;;;;6.87;5.10;;;1.40;99.90;0.70;102746;;;;541514;262;24170;-74
2023/01/24 10:24:00;;;;;;;6.63;5.43;;;1.40;99.90;0.80;102750;;;;539189;262;24207;-76
2023/01/24 10:26:38;;;;;;;8.43;5.27;;;1.50;99.90;0.80;102736;;;;540413;262;24178;-75
2023/01/24 10:29:07;;;;;;;8.80;7.22;;;1.50;99.90;0.70;102743;;;;537898;260;35770;-76
2023/01/24 10:31:35;;;;;;;8.30;5.90;;;1.60;99.90;0.70;102748;;;;542327;262;24226;-78
2023/01/24 10:34:43;;;;;;;7.93;5.23;;;1.40;99.90;0.70;102762;;;;540095;262;24169;-79
2023/01/24 10:37:11;;;;;;;9.43;6.33;;;1.50;99.90;0.60;102762;;;;540435;262;24185;-75
2023/01/24 10:39:43;;;;;;;12.68;8.68;;;1.40;99.90;0.60;102760;;;;535583;262;35899;-74
2023/01/24 10:42:12;;;;;;;12.13;8.10;;;1.40;99.90;0.60;102768;;;;540570;262;24211;-74
2023/01/24 10:44:45;;;;;;;8.83;6.50;;;1.30;99.90;0.50;102771;;;;540258;262;24184;-74
2023/01/24 10:47:27;;;;;;;8.77;6.10;;;1.30;99.90;0.50;102771;;;;543032;262;26381;-80
2023/01/24 10:50:02;;;;;;;8.40;6.70;;;1.20;99.90;0.40;102772;;;;540263;262;24162;-77
2023/01/24 10:52:29;;;;;;;8.17;5.97;;;1.20;99.90;0.40;102771;;;;542520;262;24180;-77
2023/01/24 10:54:54;;;;;;;10.30;6.70;;;1.20;99.90;0.40;102778;;;;541716;262;24199;-75
2023/01/24 10:57:44;;;;;;;7.87;5.07;;;1.10;99.90;0.40;102771;;;;539187;262;24212;-74
2023/01/24 11:00:30;;;;;;;14.67;10.07;;;1.10;99.90;0.40;102770;;;;534578;262;35795;-75
2023/01/24 11:02:58;;;;;;;10.77;7.40;;;1.10;99.90;0.20;102778;;;;538697;262;24232;-74
2023/01/24 11:05:26;;;;;;;10.83;6.97;;;1.00;99.90;0.10;102764;;;;538858;262;24191;-75
2023/01/24 11:07:54;;;;;;;9.70;5.77;;;0.90;99.90;0.10;102764;;;;538643;262;24211;-74
2023/01/24 11:10:22;;;;;;;9.97;7.07;;;0.80;99.90;0.10;102767;;;;540429;262;24218;-75
2023/01/24 11:12:53;;;;;;;10.57;7.07;;;0.80;99.90;0.10;102769;;;;538598;262;24179;-73
2023/01/24 11:15:21;;;;;;;15.70;7.50;;;0.90;99.90;0.20;102764;;;;538713;262;24172;-73
2023/01/24 11:17:49;;;;;;;8.90;7.37;;;0.90;99.90;0.20;102759;;;;538695;261;24173;-74
2023/01/24 11:20:31;;;;;;;10.63;7.63;;;0.90;99.90;0.20;102755;;;;538903;262;24196;-77
2023/01/24 11:23:17;;;;;;;11.10;6.43;;;0.90;99.90;0.20;102739;;;;538713;262;24217;-75
2023/01/24 11:25:54;;;;;;;10.10;6.90;;;0.90;99.90;0.30;102721;;;;541776;262;24226;-73
2023/01/24 11:28:36;;;;;;;12.40;6.60;;;0.90;99.90;0.40;102718;;;;538630;262;24231;-72
2023/01/24 11:31:05;;;;;;;11.23;6.73;;;1.10;99.90;0.40;102714;;;;538812;262;24169;-74
2023/01/24 11:34:01;;;;;;;8.37;6.70;;;1.20;99.90;0.50;102716;;;;538540;262;24215;-77
2023/01/24 11:36:47;;;;;;;9.63;7.27;;;1.20;99.90;0.50;102712;;;;540777;262;24292;-74
2023/01/24 11:39:17;;;;;;;10.47;6.53;;;1.20;99.90;0.50;102715;;;;537065;262;24176;-76
2023/01/24 11:41:51;;;;;;;10.13;7.03;;;1.20;99.90;0.50;102709;;;;539699;262;24244;-74
2023/01/24 11:45:05;;;;;;;9.13;5.80;;;1.20;99.90;0.50;102706;;;;538738;262;24224;-74
2023/01/24 11:47:38;;;;;;;10.90;6.37;;;1.20;99.90;0.60;102710;;;;541780;262;24180;-74
2023/01/24 11:50:25;;;;;;;14.27;8.47;;;1.30;99.90;0.60;102698;;;;539117;262;24205;-73
2023/01/24 11:53:17;;;;;;;13.63;7.20;;;1.30;99.90;0.60;102699;;;;539523;262;24166;-72
2023/01/24 11:55:51;;;;;;;13.67;7.70;;;1.40;99.90;0.70;102697;;;;539089;262;24223;-72
2023/01/24 11:58:22;;;;;;;8.73;6.00;;;1.40;99.90;0.70;102702;;;;540871;262;24209;-75
2023/01/24 12:01:01;;;;;;;11.73;7.83;;;1.40;99.90;0.70;102709;;;;538580;262;24223;-73
2023/01/24 12:04:03;;;;;;;8.27;6.50;;;1.40;99.90;0.70;102706;;;;547091;262;24181;-72
2023/01/24 12:06:34;;;;;;;13.47;8.10;;;1.40;99.90;0.90;102688;;;;536417;262;24223;-72